Terminal Aerodrome Forecast
Issued by NWS Jackson, MS

Home | Current Version | Previous Version | Text Only | Print | Product List | Glossary On
Versions: 1 2 3 4 5 6 7 8 9 10 11 12 13 14 15 16 17 18 19 20 21
000
FTUS44 KMEG 031921 AAA
TAFTUP
TAF AMD
KTUP 031921Z 0319/0418 21008KT 6SM -TSRA SCT006 OVC025CB
      TEMPO 0319/0322 VRB10G20KT 2SM TSRA BKN006 OVC025CB
     FM032200 26008KT 6SM -SHRA VCTS BKN020 OVC035CB
      TEMPO 0322/0402 2SM TSRA BKN020CB
     FM040500 21006KT 6SM BR VCSH SCT006 OVC018
     FM040900 VRB03KT 4SM -SHRA BR VCTS BKN006 OVC018CB
     FM041400 23007KT 6SM BR VCSH BKN009 OVC020=

USA.gov is the U.S. government's official web portal to all federal, state and local government web resources and services.